Ayers, Illinois
Current Conditions -  °F | °C
As of 11:15 PM on Tuesday 25 Nov 2014 (Local Time) from K3LF Reporting Station
Clear Clear  
Wind Chill: 20°   Ceiling: Unl
Heat Index: 26°   Visibility: 10mi
Dew Point: 23°   Wind: 5mph
Humidity: 88%   Direction: 130°SE
Pressure: 30.16"   Gusts: NA
Location:  38.895°N, 89.397°W
Report Text: K3LF 260515Z AUTO 13004KT 10SM CLR M03/M05 A3016 RMK AO2 T10351052
Loading
Personal Weather Stations






























Interactive Weather Map New forecast layout! Learn more

10-Day Weather Forecast

Advertisements
Track Severe Weather on mobile